createdAt,value
2019-03-13T00:00:28.437Z,99505.59
2019-03-13T00:02:59.556Z,99505.78
2019-03-13T00:05:28.987Z,99515.41
2019-03-13T00:07:58.469Z,99517.48
2019-03-13T00:10:27.961Z,99535.14
2019-03-13T00:12:59.265Z,99545.84
2019-03-13T00:15:28.836Z,99553.34
2019-03-13T00:17:58.448Z,99566.31
2019-03-13T00:20:27.943Z,99536.62
2019-03-13T00:22:59.237Z,99566.58
2019-03-13T00:25:28.659Z,99542.13
2019-03-13T00:27:58.135Z,99582.11
2019-03-13T00:30:27.633Z,99595.16
2019-03-13T00:33:00.195Z,99596.94
2019-03-13T00:35:29.685Z,99606.00
2019-03-13T00:37:59.081Z,99620.36
2019-03-13T00:40:29.505Z,99626.13
2019-03-13T00:42:58.911Z,99638.20
2019-03-13T00:45:28.409Z,99645.49
2019-03-13T00:47:58.475Z,99645.25
2019-03-13T00:50:32.128Z,99648.63
2019-03-13T00:53:01.745Z,99657.69
2019-03-13T00:55:32.889Z,99665.45
2019-03-13T00:58:03.923Z,99672.45
2019-03-13T01:00:53.397Z,99670.86
2019-03-13T01:03:30.789Z,99670.91
2019-03-13T01:06:01.846Z,99676.48
2019-03-13T01:08:33.704Z,99689.52
2019-03-13T01:11:03.170Z,99692.58
2019-03-13T01:13:32.597Z,99699.02
2019-03-13T01:16:02.080Z,99692.10
2019-03-13T01:18:33.120Z,99708.98
2019-03-13T01:21:04.250Z,99706.34
2019-03-13T01:23:35.567Z,99712.48
2019-03-13T01:26:05.522Z,99704.94
2019-03-13T01:28:35.086Z,99714.43
2019-03-13T01:31:11.942Z,99719.73
2019-03-13T01:33:43.482Z,99721.95
2019-03-13T01:36:17.576Z,99724.62
2019-03-13T01:38:49.538Z,99733.73
2019-03-13T01:41:20.682Z,99726.05
2019-03-13T01:43:50.108Z,99729.50
2019-03-13T01:46:20.494Z,99725.70
2019-03-13T01:48:51.473Z,99732.17
2019-03-13T01:51:20.942Z,99736.00
2019-03-13T01:53:53.242Z,99731.22
2019-03-13T01:56:22.654Z,99723.72
2019-03-13T01:58:54.628Z,99734.55
2019-03-13T02:01:24.040Z,99731.91
2019-03-13T02:03:53.574Z,99732.77
2019-03-13T02:06:27.675Z,99738.85
2019-03-13T02:08:56.330Z,99737.52
2019-03-13T02:11:25.768Z,99753.00
2019-03-13T02:13:56.249Z,99759.48
2019-03-13T02:16:25.746Z,99751.75
2019-03-13T02:19:00.973Z,99755.08
2019-03-13T02:21:32.026Z,99761.16
2019-03-13T02:24:01.436Z,99764.95
2019-03-13T02:26:30.934Z,99759.17
2019-03-13T02:29:00.355Z,99757.14
2019-03-13T02:31:29.767Z,99762.33
2019-03-13T02:34:00.700Z,99762.66
2019-03-13T02:36:30.135Z,99761.38
2019-03-13T02:38:59.543Z,99759.13
2019-03-13T02:41:32.138Z,99763.95
2019-03-13T02:44:02.009Z,99756.50
2019-03-13T02:46:34.509Z,99756.67
2019-03-13T02:49:04.015Z,99756.97
2019-03-13T02:51:33.517Z,99759.64
2019-03-13T02:54:02.989Z,99754.42
2019-03-13T02:56:32.933Z,99746.62
2019-03-13T02:59:02.339Z,99750.02
2019-03-13T03:01:35.030Z,99759.95
2019-03-13T03:04:06.445Z,99755.11
2019-03-13T03:06:35.865Z,99755.16
2019-03-13T03:09:07.791Z,99753.43
2019-03-13T03:11:38.917Z,99744.37
2019-03-13T03:14:08.324Z,99731.59
2019-03-13T03:16:37.739Z,99744.77
2019-03-13T03:19:07.219Z,99747.02
2019-03-13T03:21:36.769Z,99744.59
2019-03-13T03:24:06.277Z,99741.66
2019-03-13T03:26:35.772Z,99743.81
2019-03-13T03:29:05.262Z,99742.26
2019-03-13T03:31:36.355Z,99750.10
2019-03-13T03:34:10.216Z,99751.75
2019-03-13T03:36:39.625Z,99750.11
2019-03-13T03:39:11.998Z,99747.52
2019-03-13T03:41:41.862Z,99758.03
2019-03-13T03:44:11.938Z,99750.27
2019-03-13T03:46:41.377Z,99758.26
2019-03-13T03:49:10.891Z,99758.61
2019-03-13T03:51:40.593Z,99762.75
2019-03-13T03:54:10.078Z,99760.03
2019-03-13T03:56:40.873Z,99768.27
2019-03-13T03:59:10.281Z,99759.13
2019-03-13T04:01:41.466Z,99770.27
2019-03-13T04:04:10.902Z,99761.16
2019-03-13T04:06:40.447Z,99754.64
2019-03-13T04:09:11.419Z,99751.19
2019-03-13T04:11:40.837Z,99754.25
2019-03-13T04:14:10.255Z,99755.16
2019-03-13T04:16:41.226Z,99758.95
2019-03-13T04:19:10.626Z,99765.05
2019-03-13T04:21:42.124Z,99756.80
2019-03-13T04:24:11.583Z,99768.92
2019-03-13T04:26:45.564Z,99764.61
2019-03-13T04:29:16.789Z,99760.30
2019-03-13T04:31:46.232Z,99766.25
2019-03-13T04:34:15.642Z,99774.05
2019-03-13T04:36:47.097Z,99761.50
2019-03-13T04:39:18.893Z,99766.55
2019-03-13T04:41:49.855Z,99758.27
2019-03-13T04:44:19.273Z,99751.48
2019-03-13T04:46:48.679Z,99752.31
2019-03-13T04:49:18.111Z,99749.85
2019-03-13T04:51:47.515Z,99759.69
2019-03-13T04:54:17.012Z,99750.67
2019-03-13T04:56:46.414Z,99753.17
2019-03-13T04:59:15.844Z,99759.61
2019-03-13T05:01:46.997Z,99762.83
2019-03-13T05:04:18.059Z,99764.17
2019-03-13T05:06:49.833Z,99770.34
2019-03-13T05:09:19.321Z,99757.70
2019-03-13T05:11:48.855Z,99757.31
2019-03-13T05:14:18.284Z,99755.94
2019-03-13T05:16:47.783Z,99751.17
2019-03-13T05:19:17.184Z,99759.25
2019-03-13T05:21:46.627Z,99757.70
2019-03-13T05:24:17.641Z,99751.47
2019-03-13T05:26:47.090Z,99756.36
2019-03-13T05:29:17.909Z,99759.20
2019-03-13T05:31:48.908Z,99732.79
2019-03-13T05:34:21.227Z,99734.42
2019-03-13T05:36:52.274Z,99746.50
2019-03-13T05:39:21.698Z,99732.59
2019-03-13T05:41:51.103Z,99733.41
2019-03-13T05:44:20.720Z,99742.80
2019-03-13T05:46:50.127Z,99741.98
2019-03-13T05:49:19.569Z,99736.72
2019-03-13T05:51:51.366Z,99738.25
2019-03-13T05:54:20.798Z,99740.84
2019-03-13T05:56:52.048Z,99748.13
2019-03-13T05:59:23.207Z,99743.83
2019-03-13T06:01:52.706Z,99744.64
2019-03-13T06:04:23.636Z,99743.14
2019-03-13T06:06:55.036Z,99743.09
2019-03-13T06:09:25.624Z,99734.89
2019-03-13T06:11:55.279Z,99739.88
2019-03-13T06:14:25.246Z,99740.26
2019-03-13T06:16:55.751Z,99735.95
2019-03-13T06:19:25.147Z,99737.34
2019-03-13T06:21:56.070Z,99741.99
2019-03-13T06:24:25.472Z,99736.67
2019-03-13T06:26:54.933Z,99740.60
2019-03-13T06:29:26.705Z,99736.51
2019-03-13T06:31:57.190Z,99739.45
2019-03-13T06:34:27.681Z,99735.01
2019-03-13T06:36:57.216Z,99735.88
2019-03-13T06:39:31.897Z,99725.13
2019-03-13T06:42:00.423Z,99734.54
2019-03-13T06:44:29.847Z,99739.66
2019-03-13T06:46:59.253Z,99730.83
2019-03-13T06:49:28.678Z,99741.67
2019-03-13T06:52:00.214Z,99742.82
2019-03-13T06:54:29.623Z,99736.83
2019-03-13T06:56:59.048Z,99741.48
2019-03-13T06:59:32.792Z,99742.72
2019-03-13T07:02:15.615Z,99732.25
2019-03-13T07:04:58.905Z,99750.06
2019-03-13T07:07:45.069Z,99746.08
2019-03-13T07:10:28.189Z,99756.41
2019-03-13T07:13:02.975Z,99752.98
2019-03-13T07:15:40.407Z,99748.57
2019-03-13T07:18:27.967Z,99746.50
2019-03-13T07:21:08.313Z,99749.33
2019-03-13T07:23:45.419Z,99743.49
2019-03-13T07:26:19.507Z,99739.55
2019-03-13T07:29:12.134Z,99737.83
2019-03-13T07:31:51.496Z,99726.05
2019-03-13T07:34:28.273Z,99732.48
2019-03-13T07:37:11.107Z,99740.16
2019-03-13T07:39:42.186Z,99730.09
2019-03-13T07:42:13.234Z,99727.08
2019-03-13T07:44:50.525Z,99737.34
2019-03-13T07:47:30.726Z,99736.15
2019-03-13T07:50:01.807Z,99728.75
2019-03-13T07:52:36.012Z,99715.23
2019-03-13T07:55:20.708Z,99721.78
2019-03-13T07:57:57.720Z,99707.06
2019-03-13T08:00:37.314Z,99714.95
2019-03-13T08:03:08.501Z,99707.38
2019-03-13T08:05:42.319Z,99712.77
2019-03-13T08:08:16.085Z,99711.78
2019-03-13T08:10:50.122Z,99710.97
2019-03-13T08:13:30.174Z,99717.80
2019-03-13T08:16:10.122Z,99709.08
2019-03-13T08:18:56.455Z,99721.20
2019-03-13T08:21:36.256Z,99726.08
2019-03-13T08:24:16.577Z,99712.67
2019-03-13T08:27:02.268Z,99721.05
2019-03-13T08:29:42.472Z,99737.74
2019-03-13T08:32:28.654Z,99715.15
2019-03-13T08:35:12.064Z,99726.61
2019-03-13T08:37:45.812Z,99714.20
2019-03-13T08:40:35.353Z,99702.02
2019-03-13T08:43:22.813Z,99705.45
2019-03-13T08:45:53.941Z,99702.17
2019-03-13T08:48:24.985Z,99690.95
2019-03-13T08:51:01.516Z,99690.88
2019-03-13T08:53:44.136Z,99692.36
2019-03-13T08:56:15.220Z,99684.19
2019-03-13T08:59:04.468Z,99689.80
2019-03-13T09:01:41.057Z,99686.52
2019-03-13T09:04:27.219Z,99685.41
2019-03-13T09:07:15.320Z,99670.41
2019-03-13T09:09:52.131Z,99659.96
2019-03-13T09:12:39.558Z,99669.92
2019-03-13T09:15:14.661Z,99674.68
2019-03-13T09:18:02.167Z,99669.32
2019-03-13T09:23:46.960Z,99673.13
2019-03-13T09:26:32.855Z,99670.03
2019-03-13T09:29:09.859Z,99656.73
2019-03-13T09:31:43.905Z,99656.48
2019-03-13T09:34:16.039Z,99670.30
2019-03-13T09:36:55.986Z,99661.14
2019-03-13T09:39:36.809Z,99661.26
2019-03-13T09:42:13.032Z,99653.79
2019-03-13T09:44:44.152Z,99646.97
2019-03-13T09:47:15.227Z,99637.48
2019-03-13T09:49:52.345Z,99629.81
2019-03-13T09:52:26.187Z,99630.75
2019-03-13T09:55:00.368Z,99632.63
2019-03-13T09:57:40.691Z,99644.09
2019-03-13T10:00:19.005Z,99640.33
2019-03-13T10:02:50.083Z,99648.66
2019-03-13T10:05:21.131Z,99634.80
2019-03-13T10:07:52.211Z,99636.11
2019-03-13T10:10:39.568Z,99626.02
2019-03-13T10:13:10.707Z,99626.70
2019-03-13T10:15:44.530Z,99630.30
2019-03-13T10:18:21.118Z,99617.44
2019-03-13T10:20:58.209Z,99640.34
2019-03-13T10:23:29.260Z,99628.54
2019-03-13T10:26:16.658Z,99631.70
2019-03-13T10:28:59.959Z,99638.73
2019-03-13T10:31:31.032Z,99626.36
2019-03-13T10:34:04.921Z,99623.70
2019-03-13T10:36:41.912Z,99629.41
2019-03-13T10:39:12.977Z,99620.25
2019-03-13T10:41:44.381Z,99628.96
2019-03-13T10:44:27.450Z,99638.32
2019-03-13T10:46:58.531Z,99632.62
2019-03-13T10:49:35.340Z,99625.89
2019-03-13T10:52:06.626Z,99624.03
2019-03-13T10:54:37.672Z,99616.41
2019-03-13T10:57:12.045Z,99615.34
2019-03-13T10:59:59.561Z,99617.77
2019-03-13T11:02:33.312Z,99611.95
2019-03-13T11:05:22.730Z,99603.58
2019-03-13T11:07:59.476Z,99614.60
2019-03-13T11:10:36.106Z,99610.36
2019-03-13T11:13:16.129Z,99594.70
2019-03-13T11:15:47.179Z,99600.94
2019-03-13T11:18:34.707Z,99588.22
2019-03-13T11:21:05.935Z,99602.11
2019-03-13T11:23:39.429Z,99598.34
2019-03-13T11:26:10.644Z,99600.37
2019-03-13T11:28:41.765Z,99597.83
2019-03-13T11:31:12.919Z,99600.16
2019-03-13T11:33:46.681Z,99583.56
2019-03-13T11:36:23.386Z,99581.11
2019-03-13T11:39:03.287Z,99581.46
2019-03-13T11:41:51.330Z,99582.97
2019-03-13T11:44:28.121Z,99579.23
2019-03-13T11:47:11.433Z,99588.27
2019-03-13T11:49:42.584Z,99588.17
2019-03-13T11:52:13.747Z,99580.86
2019-03-13T11:54:44.797Z,99584.01
2019-03-13T11:57:27.847Z,99602.97
2019-03-13T12:00:07.964Z,99588.70
2019-03-13T12:02:39.115Z,99584.00
2019-03-13T12:05:30.991Z,99589.20
2019-03-13T12:08:11.184Z,99599.77
2019-03-13T12:10:44.743Z,99589.69
2019-03-13T12:13:16.044Z,99594.50
2019-03-13T12:16:05.418Z,99597.48
2019-03-13T12:18:36.567Z,99588.00
2019-03-13T12:21:07.762Z,99589.48
2019-03-13T12:23:45.413Z,99581.19
2019-03-13T12:26:28.733Z,99586.60
2019-03-13T12:29:05.799Z,99584.70
2019-03-13T12:31:40.046Z,99584.29
2019-03-13T12:34:17.431Z,99571.92
2019-03-13T12:40:00.416Z,99577.75
2019-03-13T12:42:43.784Z,99577.59
2019-03-13T12:45:34.308Z,99561.97
2019-03-13T12:48:16.837Z,99568.89
2019-03-13T12:51:06.098Z,99564.50
2019-03-13T12:53:37.233Z,99560.09
2019-03-13T12:56:08.352Z,99564.66
2019-03-13T12:58:48.595Z,99556.72
2019-03-13T13:01:19.725Z,99558.80
2019-03-13T13:03:50.796Z,99558.00
2019-03-13T13:06:36.846Z,99554.23
2019-03-13T13:09:25.673Z,99555.91
2019-03-13T13:12:12.983Z,99549.38
2019-03-13T13:14:44.587Z,99554.90
2019-03-13T13:17:18.637Z,99570.05
2019-03-13T13:19:48.142Z,99557.88
2019-03-13T13:22:17.639Z,99549.22
2019-03-13T13:24:47.150Z,99535.47
2019-03-13T13:27:16.556Z,99542.41
2019-03-13T13:29:45.993Z,99534.86
2019-03-13T13:32:15.398Z,99534.99
2019-03-13T13:34:44.838Z,99538.48
2019-03-13T13:37:14.300Z,99534.13
2019-03-13T13:39:44.798Z,99526.15
2019-03-13T13:42:14.204Z,99513.44
2019-03-13T13:44:43.660Z,99524.75
2019-03-13T13:47:13.092Z,99512.90
2019-03-13T13:49:42.581Z,99499.11
2019-03-13T13:52:12.063Z,99515.59
2019-03-13T13:54:41.509Z,99495.34
2019-03-13T13:57:10.927Z,99498.31
2019-03-13T13:59:40.345Z,99493.38
2019-03-13T14:02:12.771Z,99486.34
2019-03-13T14:04:42.212Z,99482.66
2019-03-13T14:07:12.739Z,99485.95
2019-03-13T14:09:42.133Z,99479.91
2019-03-13T14:12:11.641Z,99487.48
2019-03-13T14:14:41.122Z,99470.84
2019-03-13T14:17:11.594Z,99484.34
2019-03-13T14:19:41.034Z,99482.05
2019-03-13T14:22:10.451Z,99482.17
2019-03-13T14:24:39.896Z,99495.91
2019-03-13T14:27:14.334Z,99497.41
2019-03-13T14:29:40.464Z,99485.30
2019-03-13T14:32:09.879Z,99483.03
2019-03-13T14:34:39.383Z,99478.11
2019-03-13T14:37:08.801Z,99473.47
2019-03-13T14:39:38.232Z,99468.34
2019-03-13T14:42:07.719Z,99459.02
2019-03-13T14:44:37.127Z,99469.70
2019-03-13T14:47:06.545Z,99461.23
2019-03-13T14:49:36.060Z,99465.01
2019-03-13T14:52:05.590Z,99462.47
2019-03-13T14:54:35.020Z,99465.56
2019-03-13T14:57:04.572Z,99477.74
2019-03-13T14:59:34.080Z,99469.75
2019-03-13T15:02:04.602Z,99468.95
2019-03-13T15:04:34.029Z,99476.14
2019-03-13T15:07:03.462Z,99485.56
2019-03-13T15:09:32.867Z,99468.70
2019-03-13T15:12:02.360Z,99465.75
2019-03-13T15:14:31.840Z,99461.11
2019-03-13T15:17:01.272Z,99476.17
2019-03-13T15:19:33.012Z,99480.45
2019-03-13T15:22:02.430Z,99478.47
2019-03-13T15:24:31.918Z,99481.53
2019-03-13T15:27:01.422Z,99481.67
2019-03-13T15:29:33.368Z,99486.86
2019-03-13T15:32:02.800Z,99482.55
2019-03-13T15:34:32.226Z,99490.25
2019-03-13T15:37:03.214Z,99482.11
2019-03-13T15:39:32.651Z,99482.47
2019-03-13T15:42:02.094Z,99486.91
2019-03-13T15:44:31.842Z,99488.09
2019-03-13T15:47:01.278Z,99486.00
2019-03-13T15:49:30.718Z,99492.05
2019-03-13T15:52:00.184Z,99482.80
2019-03-13T15:54:29.618Z,99478.96
2019-03-13T15:56:59.039Z,99474.69
2019-03-13T15:59:29.354Z,99474.71
2019-03-13T16:01:58.760Z,99482.85
2019-03-13T16:04:28.200Z,99477.09
2019-03-13T16:06:57.743Z,99478.22
2019-03-13T16:09:27.172Z,99469.08
2019-03-13T16:11:56.580Z,99480.75
2019-03-13T16:14:28.606Z,99488.16
2019-03-13T16:16:58.075Z,99467.48
2019-03-13T16:19:28.478Z,99461.30
2019-03-13T16:21:57.888Z,99461.41
2019-03-13T16:24:27.469Z,99463.77
2019-03-13T16:26:59.715Z,99454.98
2019-03-13T16:29:30.989Z,99460.73
2019-03-13T16:32:00.308Z,99467.41
2019-03-13T16:34:29.699Z,99457.76
2019-03-13T16:36:59.103Z,99454.94
2019-03-13T16:39:30.070Z,99445.36
2019-03-13T16:42:01.490Z,99457.15
2019-03-13T16:44:30.973Z,99453.98
2019-03-13T16:47:00.403Z,99463.33
2019-03-13T16:49:29.814Z,99458.12
2019-03-13T16:51:59.329Z,99451.66
2019-03-13T16:54:31.641Z,99462.09
2019-03-13T16:57:01.086Z,99451.58
2019-03-13T16:59:30.777Z,99459.66
2019-03-13T17:02:00.589Z,99460.91
2019-03-13T17:04:30.139Z,99464.55
2019-03-13T17:06:59.734Z,99474.86
2019-03-13T17:09:29.139Z,99467.24
2019-03-13T17:11:58.644Z,99468.16
2019-03-13T17:14:32.841Z,99465.00
2019-03-13T17:17:02.077Z,99468.14
2019-03-13T17:19:31.693Z,99478.13
2019-03-13T17:22:01.321Z,99479.11
2019-03-13T17:24:30.877Z,99479.61
2019-03-13T17:27:00.678Z,99490.98
2019-03-13T17:29:30.220Z,99496.02
2019-03-13T17:31:59.779Z,99479.53
2019-03-13T17:34:30.499Z,99475.77
2019-03-13T17:37:00.064Z,99471.94
2019-03-13T17:39:29.577Z,99469.50
2019-03-13T17:41:59.076Z,99476.16
2019-03-13T17:44:28.530Z,99469.45
2019-03-13T17:46:58.039Z,99464.60
2019-03-13T17:49:27.494Z,99475.02
2019-03-13T17:51:56.935Z,99475.52
2019-03-13T17:54:26.524Z,99469.73
2019-03-13T17:56:56.030Z,99455.45
2019-03-13T17:59:34.712Z,99459.09
2019-03-13T18:02:04.438Z,99461.03
2019-03-13T18:04:33.920Z,99458.78
2019-03-13T18:07:03.427Z,99451.70
2019-03-13T18:09:32.972Z,99458.28
2019-03-13T18:12:02.416Z,99453.36
2019-03-13T18:14:34.522Z,99456.94
2019-03-13T18:17:04.014Z,99452.89
2019-03-13T18:19:33.536Z,99459.23
2019-03-13T18:22:03.077Z,99458.81
2019-03-13T18:24:32.532Z,99449.52
2019-03-13T18:27:01.929Z,99449.42
2019-03-13T18:29:31.520Z,99455.59
2019-03-13T18:32:00.922Z,99458.98
2019-03-13T18:34:30.514Z,99461.27
2019-03-13T18:37:01.866Z,99450.51
2019-03-13T18:39:31.227Z,99456.61
2019-03-13T18:42:00.696Z,99460.07
2019-03-13T18:44:30.139Z,99454.55
2019-03-13T18:46:59.543Z,99469.73
2019-03-13T18:49:28.973Z,99466.55
2019-03-13T18:51:59.225Z,99467.95
2019-03-13T18:54:29.844Z,99486.27
2019-03-13T18:56:59.341Z,99480.33
2019-03-13T18:59:28.811Z,99482.00
2019-03-13T19:01:58.401Z,99490.36
2019-03-13T19:04:27.893Z,99486.86
2019-03-13T19:07:00.147Z,99488.58
2019-03-13T19:09:29.415Z,99489.38
2019-03-13T19:11:59.129Z,99497.17
2019-03-13T19:14:28.669Z,99497.16
2019-03-13T19:16:58.099Z,99502.77
2019-03-13T19:19:29.064Z,99496.78
2019-03-13T19:21:58.477Z,99506.78
2019-03-13T19:24:27.989Z,99508.38
2019-03-13T19:26:57.403Z,99501.00
2019-03-13T19:29:26.840Z,99503.59
2019-03-13T19:31:56.369Z,99493.23
2019-03-13T19:34:26.602Z,99495.33
2019-03-13T19:36:59.333Z,99493.08
2019-03-13T19:39:32.279Z,99496.42
2019-03-13T19:42:01.717Z,99495.49
2019-03-13T19:44:31.152Z,99489.38
2019-03-13T19:47:01.645Z,99499.22
2019-03-13T19:49:31.388Z,99495.70
2019-03-13T19:52:00.795Z,99504.72
2019-03-13T19:54:30.310Z,99489.98
2019-03-13T19:57:02.878Z,99498.23
2019-03-13T19:59:33.390Z,99505.14
2019-03-13T20:02:03.958Z,99508.60
2019-03-13T20:04:33.495Z,99519.70
2019-03-13T20:07:03.069Z,99522.73
2019-03-13T20:09:33.606Z,99520.48
2019-03-13T20:12:03.114Z,99527.66
2019-03-13T20:14:32.530Z,99528.45
2019-03-13T20:17:02.058Z,99526.34
2019-03-13T20:19:31.537Z,99534.86
2019-03-13T20:22:03.791Z,99525.38
2019-03-13T20:24:33.348Z,99539.09
2019-03-13T20:27:02.862Z,99526.92
2019-03-13T20:29:35.408Z,99529.84
2019-03-13T20:32:04.976Z,99535.95
2019-03-13T20:34:34.823Z,99531.62
2019-03-13T20:37:06.824Z,99530.55
2019-03-13T20:39:37.900Z,99531.07
2019-03-13T20:42:07.752Z,99546.10
2019-03-13T20:44:37.184Z,99542.94
2019-03-13T20:47:06.804Z,99558.58
2019-03-13T20:49:39.198Z,99553.44
2019-03-13T20:52:11.416Z,99552.89
2019-03-13T20:54:40.851Z,99548.12
2019-03-13T20:57:10.261Z,99551.96
2019-03-13T20:59:39.720Z,99572.23
2019-03-13T21:02:09.272Z,99573.14
2019-03-13T21:04:38.843Z,99579.81
2019-03-13T21:07:08.467Z,99581.11
2019-03-13T21:09:40.971Z,99575.05
2019-03-13T21:12:10.456Z,99583.42
2019-03-13T21:14:40.053Z,99586.77
2019-03-13T21:17:09.625Z,99580.72
2019-03-13T21:19:39.163Z,99579.42
2019-03-13T21:22:08.743Z,99580.72
2019-03-13T21:24:42.466Z,99584.61
2019-03-13T21:27:13.043Z,99590.78
2019-03-13T21:29:42.455Z,99589.20
2019-03-13T21:32:11.899Z,99586.50
2019-03-13T21:34:42.212Z,99593.47
2019-03-13T21:37:11.725Z,99593.30
2019-03-13T21:39:41.159Z,99595.58
2019-03-13T21:42:14.439Z,99599.47
2019-03-13T21:44:43.945Z,99607.34
2019-03-13T21:47:13.503Z,99608.54
2019-03-13T21:49:46.290Z,99616.03
2019-03-13T21:52:15.786Z,99629.00
2019-03-13T21:54:45.236Z,99624.10
2019-03-13T21:57:17.219Z,99634.41
2019-03-13T21:59:46.726Z,99632.09
2019-03-13T22:02:16.133Z,99624.62
2019-03-13T22:04:45.782Z,99619.59
2019-03-13T22:07:15.713Z,99639.66
2019-03-13T22:09:45.148Z,99643.55
2019-03-13T22:12:14.559Z,99638.88
2019-03-13T22:14:45.580Z,99657.52
2019-03-13T22:17:16.778Z,99656.23
2019-03-13T22:19:46.330Z,99653.63
2019-03-13T22:22:15.904Z,99668.72
2019-03-13T22:24:45.384Z,99678.06
2019-03-13T22:27:15.127Z,99675.47
2019-03-13T22:29:45.624Z,99670.78
2019-03-13T22:32:15.140Z,99671.69
2019-03-13T22:34:44.536Z,99693.41
2019-03-13T22:37:14.001Z,99702.48
2019-03-13T22:39:46.596Z,99709.97
2019-03-13T22:42:16.308Z,99718.63
2019-03-13T22:44:45.735Z,99726.41
2019-03-13T22:47:15.286Z,99725.79
2019-03-13T22:49:44.838Z,99731.14
2019-03-13T22:52:15.369Z,99728.38
2019-03-13T22:54:44.921Z,99745.33
2019-03-13T22:57:14.415Z,99753.16
2019-03-13T22:59:43.824Z,99741.21
2019-03-13T23:02:15.526Z,99743.38
2019-03-13T23:04:45.296Z,99754.22
2019-03-13T23:07:14.879Z,99754.70
2019-03-13T23:09:44.319Z,99755.52
2019-03-13T23:12:13.872Z,99763.29
2019-03-13T23:14:43.369Z,99760.75
2019-03-13T23:17:12.794Z,99768.10
2019-03-13T23:19:42.273Z,99768.48
2019-03-13T23:22:13.209Z,99774.53
2019-03-13T23:24:42.638Z,99767.03
2019-03-13T23:27:12.149Z,99771.73
2019-03-13T23:29:41.540Z,99780.39
2019-03-13T23:32:10.969Z,99774.38
2019-03-13T23:34:40.375Z,99787.77
2019-03-13T23:37:09.825Z,99795.17
2019-03-13T23:39:39.811Z,99801.31
2019-03-13T23:42:12.027Z,99803.42
2019-03-13T23:44:41.433Z,99822.20
2019-03-13T23:47:12.717Z,99844.36
2019-03-13T23:49:42.139Z,99829.81
2019-03-13T23:52:11.575Z,99816.83
2019-03-13T23:54:41.027Z,99834.16
2019-03-13T23:57:10.493Z,99832.38
2019-03-13T23:59:39.921Z,99834.84
